Time;durP1;ratioP1;P1;durP2;ratioP2;P2;SDS_P1;SDS_P2;PMS_P1;PMS_P2;Temp;Humidity;BMP_temperature;BMP_pressure;BME280_temperature;BME280_humidity;BME280_pressure;Samples;Min_cycle;Max_cycle;Signal;HPM_P1;HPM_P2
2023/03/15 00:00:41;;;;;;;4.70;2.30;;;6.30;99.90;;;;;;5061006;28;20187;-65
2023/03/15 00:03:07;;;;;;;3.90;2.57;;;6.30;99.90;;;;;;5052887;28;20191;-65
2023/03/15 00:05:33;;;;;;;4.90;2.60;;;6.20;99.90;;;;;;5058123;28;20768;-64
2023/03/15 00:07:58;;;;;;;2.80;2.40;;;6.20;99.90;;;;;;5052203;28;20466;-64
2023/03/15 00:10:24;;;;;;;3.33;2.50;;;6.20;99.90;;;;;;5053961;28;20436;-64
2023/03/15 00:12:50;;;;;;;3.73;2.10;;;6.10;99.90;;;;;;5057182;28;20229;-64
2023/03/15 00:15:15;;;;;;;6.33;2.73;;;6.10;99.90;;;;;;5058540;28;20175;-64
2023/03/15 00:17:41;;;;;;;3.60;2.40;;;6.20;99.90;;;;;;5055493;28;20281;-64
2023/03/15 00:20:08;;;;;;;4.20;2.23;;;6.10;99.90;;;;;;5050418;28;20259;-64
2023/03/15 00:22:33;;;;;;;5.47;2.50;;;6.10;99.90;;;;;;5055280;28;20202;-64
2023/03/15 00:24:59;;;;;;;4.90;2.80;;;6.00;99.90;;;;;;5052713;28;20433;-64
2023/03/15 00:27:24;;;;;;;5.03;2.20;;;6.10;99.90;;;;;;5055180;28;20198;-65
2023/03/15 00:29:50;;;;;;;4.50;2.47;;;6.10;99.90;;;;;;5058556;28;21146;-65
2023/03/15 00:32:16;;;;;;;4.17;2.33;;;6.10;99.90;;;;;;5057816;28;20668;-64
2023/03/15 00:34:47;;;;;;;3.03;2.17;;;6.10;99.90;;;;;;5055321;28;20218;-65
2023/03/15 00:37:18;;;;;;;6.77;2.40;;;5.90;99.90;;;;;;5055052;28;20207;-64
2023/03/15 00:39:45;;;;;;;4.57;2.47;;;6.00;99.90;;;;;;5056364;28;20778;-64
2023/03/15 00:42:15;;;;;;;7.00;2.63;;;6.00;99.90;;;;;;5054367;28;20445;-65
2023/03/15 00:44:42;;;;;;;4.60;2.13;;;6.00;99.90;;;;;;5053748;28;20419;-64
2023/03/15 00:47:12;;;;;;;4.50;2.83;;;5.90;99.90;;;;;;5057122;28;20469;-65
2023/03/15 00:49:39;;;;;;;4.13;2.30;;;5.80;99.90;;;;;;5056051;28;21056;-64
2023/03/15 00:52:06;;;;;;;6.47;2.90;;;5.80;99.90;;;;;;5053133;28;20938;-64
2023/03/15 00:54:32;;;;;;;4.57;2.87;;;5.70;99.90;;;;;;5056351;28;20505;-64
2023/03/15 00:57:01;;;;;;;4.23;2.30;;;5.60;99.90;;;;;;5058705;28;20577;-64
2023/03/15 00:59:33;;;;;;;4.60;2.30;;;5.60;99.90;;;;;;5053529;28;20495;-64
2023/03/15 01:02:01;;;;;;;4.87;2.43;;;5.50;99.90;;;;;;5054121;28;20421;-64
2023/03/15 01:04:26;;;;;;;3.60;2.70;;;5.50;99.90;;;;;;5052813;28;20452;-65
2023/03/15 01:06:52;;;;;;;4.17;2.60;;;5.50;99.90;;;;;;5051269;28;20548;-64
2023/03/15 01:09:17;;;;;;;3.57;2.93;;;5.60;99.90;;;;;;5048913;28;20176;-64
2023/03/15 01:11:43;;;;;;;3.80;2.53;;;5.60;99.90;;;;;;5060173;28;20934;-64
2023/03/15 01:14:09;;;;;;;4.50;2.50;;;5.60;99.90;;;;;;5052489;28;20755;-65
2023/03/15 01:16:34;;;;;;;6.73;3.33;;;5.60;99.90;;;;;;5055181;28;20208;-64
2023/03/15 01:19:00;;;;;;;5.97;2.60;;;5.60;99.90;;;;;;5054620;28;20441;-64
2023/03/15 01:21:26;;;;;;;3.50;2.30;;;5.50;99.90;;;;;;5054604;28;20216;-65
2023/03/15 01:23:52;;;;;;;3.40;2.53;;;5.40;99.90;;;;;;5053899;28;20194;-64
2023/03/15 01:26:18;;;;;;;4.70;2.37;;;5.50;99.90;;;;;;5053042;28;20542;-65
2023/03/15 01:28:44;;;;;;;5.70;2.63;;;5.40;99.90;;;;;;5051184;28;20464;-64
2023/03/15 01:31:16;;;;;;;4.80;2.80;;;5.40;99.90;;;;;;5054061;28;20301;-64
2023/03/15 01:33:41;;;;;;;3.70;2.37;;;5.40;99.90;;;;;;5057282;28;20437;-64
2023/03/15 01:36:07;;;;;;;8.67;3.00;;;5.40;99.90;;;;;;5052515;28;20812;-64
2023/03/15 01:38:33;;;;;;;2.97;2.10;;;5.50;99.90;;;;;;5052955;28;20246;-64
2023/03/15 01:40:59;;;;;;;3.40;1.97;;;5.40;99.90;;;;;;5051988;28;20652;-64
2023/03/15 01:43:27;;;;;;;6.60;2.80;;;5.50;99.90;;;;;;5055635;28;20438;-64
2023/03/15 01:45:55;;;;;;;6.33;2.20;;;5.50;99.90;;;;;;5052627;28;20450;-64
2023/03/15 01:48:25;;;;;;;2.87;2.20;;;5.40;99.90;;;;;;5054419;28;20511;-64
2023/03/15 01:50:53;;;;;;;3.27;1.80;;;5.50;99.90;;;;;;5056044;28;20486;-64
2023/03/15 01:53:21;;;;;;;3.47;2.40;;;5.60;99.90;;;;;;5055904;28;20422;-64
2023/03/15 01:55:46;;;;;;;2.80;2.13;;;5.40;99.90;;;;;;5052132;28;20551;-64
2023/03/15 01:58:12;;;;;;;2.70;2.07;;;5.40;99.90;;;;;;5053959;28;20560;-65
2023/03/15 02:00:38;;;;;;;3.73;2.07;;;5.30;99.90;;;;;;5055819;28;20321;-64
2023/03/15 02:03:13;;;;;;;3.60;2.10;;;5.30;99.90;;;;;;5050009;28;20529;-64
2023/03/15 02:05:46;;;;;;;3.20;2.27;;;5.20;99.90;;;;;;5048901;28;20199;-64
2023/03/15 02:08:14;;;;;;;4.77;2.20;;;5.20;99.90;;;;;;5051232;28;20462;-64
2023/03/15 02:10:44;;;;;;;2.90;2.20;;;5.30;99.90;;;;;;5051959;28;20495;-64
2023/03/15 02:13:13;;;;;;;3.00;2.20;;;5.20;99.90;;;;;;5054027;28;20461;-64
2023/03/15 02:15:45;;;;;;;4.50;2.20;;;5.10;99.90;;;;;;5056872;28;20516;-64
2023/03/15 02:18:11;;;;;;;5.97;2.53;;;5.10;99.90;;;;;;5052984;28;21189;-64
2023/03/15 02:20:59;;;;;;;3.87;2.13;;;5.10;99.90;;;;;;5052431;28;20423;-64
2023/03/15 02:23:26;;;;;;;4.23;2.20;;;4.90;99.90;;;;;;5052469;28;20432;-64
2023/03/15 02:26:09;;;;;;;3.63;2.17;;;4.90;99.90;;;;;;5055959;28;20453;-64
2023/03/15 02:28:35;;;;;;;4.90;2.50;;;5.00;99.90;;;;;;5052208;28;20433;-63
2023/03/15 02:31:02;;;;;;;3.90;2.30;;;5.00;99.90;;;;;;5047506;28;21115;-64
2023/03/15 02:33:37;;;;;;;3.80;2.57;;;4.90;99.90;;;;;;5055250;28;20429;-64
2023/03/15 02:36:21;;;;;;;2.90;1.97;;;4.80;99.90;;;;;;5051033;28;20519;-64
2023/03/15 02:38:49;;;;;;;3.47;2.80;;;4.90;99.90;;;;;;5049166;28;20851;-64
2023/03/15 02:41:20;;;;;;;5.37;2.73;;;4.80;99.90;;;;;;5054128;28;20796;-64
2023/03/15 02:43:48;;;;;;;6.20;2.70;;;4.80;99.90;;;;;;5050731;28;20940;-64
2023/03/15 02:46:16;;;;;;;3.90;2.23;;;4.70;99.90;;;;;;5048454;28;20550;-64
2023/03/15 02:48:42;;;;;;;6.53;2.97;;;4.60;99.90;;;;;;5053144;28;20497;-64
2023/03/15 02:51:18;;;;;;;4.00;2.63;;;4.60;99.90;;;;;;5047877;28;20437;-64
2023/03/15 02:53:43;;;;;;;4.33;2.50;;;4.70;99.90;;;;;;5050461;28;20861;-64
2023/03/15 02:56:09;;;;;;;5.00;3.23;;;4.70;99.90;;;;;;5047545;28;20481;-64
2023/03/15 02:58:34;;;;;;;6.03;3.10;;;4.70;99.90;;;;;;5045993;28;20620;-64
2023/03/15 03:01:00;;;;;;;5.53;2.80;;;4.70;99.90;;;;;;5048274;28;20387;-64
2023/03/15 03:03:25;;;;;;;6.00;3.07;;;4.60;99.90;;;;;;5054165;28;20226;-64
2023/03/15 03:05:51;;;;;;;6.10;2.27;;;4.50;99.90;;;;;;5052189;28;20179;-64
2023/03/15 03:08:16;;;;;;;3.83;2.20;;;4.50;99.90;;;;;;5050179;28;20218;-64
2023/03/15 03:10:42;;;;;;;3.40;2.43;;;4.50;99.90;;;;;;5051664;28;20182;-64
2023/03/15 03:13:08;;;;;;;3.40;2.43;;;4.50;99.90;;;;;;5054616;28;20184;-64
2023/03/15 03:15:33;;;;;;;5.50;3.00;;;4.40;99.90;;;;;;5054500;28;20856;-64
2023/03/15 03:17:59;;;;;;;3.40;2.53;;;4.40;99.90;;;;;;5050482;28;20233;-64
2023/03/15 03:20:26;;;;;;;5.47;3.17;;;4.30;99.90;;;;;;5051567;28;20225;-64
2023/03/15 03:22:54;;;;;;;7.13;2.83;;;4.40;99.90;;;;;;5053939;28;20179;-64
2023/03/15 03:25:20;;;;;;;4.50;2.90;;;4.30;99.90;;;;;;5051163;28;20427;-64
2023/03/15 03:27:46;;;;;;;4.13;2.70;;;4.30;99.90;;;;;;5050396;28;20457;-64
2023/03/15 03:30:13;;;;;;;6.53;2.93;;;4.20;99.90;;;;;;5054971;28;20233;-64
2023/03/15 03:32:40;;;;;;;5.10;2.90;;;4.20;99.90;;;;;;5051218;28;20886;-64
2023/03/15 03:35:06;;;;;;;4.17;2.90;;;4.30;99.90;;;;;;5050575;28;20938;-64
2023/03/15 03:37:32;;;;;;;12.10;3.40;;;4.20;99.90;;;;;;5050992;28;20488;-64
2023/03/15 03:39:57;;;;;;;7.23;3.20;;;4.20;99.90;;;;;;5053006;28;20445;-64
2023/03/15 03:42:23;;;;;;;7.77;3.50;;;4.20;99.90;;;;;;5053028;28;20183;-64
2023/03/15 03:44:49;;;;;;;4.23;3.10;;;4.10;99.90;;;;;;5053188;28;20190;-65
2023/03/15 03:47:15;;;;;;;6.37;2.80;;;4.20;99.90;;;;;;5050970;28;20211;-64
2023/03/15 03:49:40;;;;;;;8.83;3.40;;;4.20;99.90;;;;;;5053859;28;20433;-65
2023/03/15 03:52:06;;;;;;;4.93;2.60;;;4.20;99.90;;;;;;5052518;28;20418;-64
2023/03/15 03:54:32;;;;;;;5.77;3.33;;;4.20;99.90;;;;;;5047870;28;20187;-64
2023/03/15 03:56:57;;;;;;;6.30;2.67;;;4.20;99.90;;;;;;5054335;28;20211;-64
2023/03/15 03:59:23;;;;;;;7.57;3.20;;;4.20;99.90;;;;;;5055988;28;20270;-64
2023/03/15 04:01:50;;;;;;;6.03;3.20;;;4.20;99.90;;;;;;5051804;28;20214;-64
2023/03/15 04:04:16;;;;;;;6.23;3.20;;;4.10;99.90;;;;;;5050983;28;20179;-64
2023/03/15 04:06:44;;;;;;;3.70;3.00;;;4.00;99.90;;;;;;5054147;28;20503;-64
2023/03/15 04:09:14;;;;;;;5.43;3.00;;;4.00;99.90;;;;;;5054941;28;20440;-64
2023/03/15 04:11:41;;;;;;;11.30;3.83;;;4.10;99.90;;;;;;5056137;28;20516;-64
2023/03/15 04:14:08;;;;;;;4.20;3.57;;;4.00;99.90;;;;;;5055803;28;20507;-64
2023/03/15 04:16:33;;;;;;;4.83;2.93;;;4.10;99.90;;;;;;5056326;28;20465;-64
2023/03/15 04:18:59;;;;;;;9.23;3.40;;;4.20;99.90;;;;;;5056181;28;20469;-65
2023/03/15 04:21:25;;;;;;;8.90;3.70;;;4.10;99.90;;;;;;5054416;28;20290;-64
2023/03/15 04:23:50;;;;;;;7.90;4.20;;;4.00;99.90;;;;;;5056271;28;20264;-64
2023/03/15 04:26:16;;;;;;;5.80;3.20;;;3.90;99.90;;;;;;5057267;28;20208;-64
2023/03/15 04:28:41;;;;;;;8.90;3.27;;;3.90;99.90;;;;;;5056347;28;20203;-64
2023/03/15 04:31:09;;;;;;;5.77;3.80;;;3.90;99.90;;;;;;5055697;28;20274;-64
2023/03/15 04:33:35;;;;;;;6.30;3.60;;;3.90;99.90;;;;;;5056398;28;20183;-64
2023/03/15 04:36:01;;;;;;;6.80;3.30;;;3.90;99.90;;;;;;5052160;28;20484;-64
2023/03/15 04:38:27;;;;;;;4.93;3.00;;;3.90;99.90;;;;;;5052737;28;20211;-65
2023/03/15 04:40:53;;;;;;;9.33;3.37;;;3.80;99.90;;;;;;5056443;28;20495;-64
2023/03/15 04:43:20;;;;;;;8.57;4.17;;;3.80;99.90;;;;;;5058415;28;20175;-64
2023/03/15 04:45:45;;;;;;;9.00;4.30;;;3.80;99.90;;;;;;5055818;28;20515;-64
2023/03/15 04:48:11;;;;;;;4.40;3.60;;;3.80;99.90;;;;;;5055077;28;20857;-64
2023/03/15 04:50:37;;;;;;;6.00;3.30;;;3.80;99.90;;;;;;5054456;28;20288;-64
2023/03/15 04:53:02;;;;;;;4.90;3.60;;;3.90;99.90;;;;;;5056584;28;20269;-64
2023/03/15 04:55:28;;;;;;;7.87;3.60;;;4.00;99.90;;;;;;5052220;28;20319;-64
2023/03/15 04:57:54;;;;;;;4.90;3.20;;;3.90;99.90;;;;;;5053972;28;20719;-64
2023/03/15 05:00:20;;;;;;;7.07;3.30;;;3.90;99.90;;;;;;5056040;28;20221;-65
2023/03/15 05:02:53;;;;;;;5.10;3.60;;;3.80;99.90;;;;;;5052814;28;20461;-65
2023/03/15 05:05:19;;;;;;;6.23;3.77;;;3.90;99.90;;;;;;5051337;28;20974;-65
2023/03/15 05:07:45;;;;;;;8.83;3.50;;;3.90;99.90;;;;;;5055075;28;20676;-65
2023/03/15 05:10:10;;;;;;;8.03;4.00;;;3.90;99.90;;;;;;5052915;28;20771;-65
2023/03/15 05:12:36;;;;;;;12.77;3.23;;;3.90;99.90;;;;;;5051280;28;20263;-65
2023/03/15 05:15:02;;;;;;;5.10;3.60;;;3.90;99.90;;;;;;5057659;28;20214;-65
2023/03/15 05:17:27;;;;;;;8.17;3.70;;;3.80;99.90;;;;;;5057287;28;20219;-65
2023/03/15 05:19:53;;;;;;;7.27;3.20;;;3.80;99.90;;;;;;5053997;28;20187;-65
2023/03/15 05:22:18;;;;;;;7.93;4.00;;;3.80;99.90;;;;;;5053830;28;20241;-64
2023/03/15 05:24:44;;;;;;;7.43;3.90;;;3.70;99.90;;;;;;5054079;28;20191;-64
2023/03/15 05:27:12;;;;;;;5.73;3.30;;;3.70;99.90;;;;;;5056510;28;20865;-64
2023/03/15 05:29:37;;;;;;;7.27;3.50;;;3.70;99.90;;;;;;5053065;28;20252;-64
2023/03/15 05:32:03;;;;;;;6.73;3.50;;;3.80;99.90;;;;;;5054109;28;20940;-64
2023/03/15 05:34:31;;;;;;;14.97;3.77;;;3.80;99.90;;;;;;5052679;28;20201;-65
2023/03/15 05:36:57;;;;;;;8.20;3.77;;;3.80;99.90;;;;;;5053823;28;20457;-65
2023/03/15 05:39:23;;;;;;;7.37;3.97;;;3.80;99.90;;;;;;5054796;28;20433;-65
2023/03/15 05:41:48;;;;;;;4.63;3.70;;;3.90;99.90;;;;;;5054651;28;20434;-65
2023/03/15 05:44:14;;;;;;;6.67;4.17;;;3.80;99.90;;;;;;5057678;28;20226;-65
2023/03/15 05:46:39;;;;;;;7.30;4.50;;;3.80;99.90;;;;;;5057240;28;20210;-65
2023/03/15 05:49:05;;;;;;;4.40;3.83;;;3.80;99.90;;;;;;5051111;28;20191;-65
2023/03/15 05:51:32;;;;;;;5.50;4.17;;;3.90;99.90;;;;;;5055387;28;20203;-64
2023/03/15 05:53:58;;;;;;;8.27;4.03;;;3.80;99.90;;;;;;5052122;28;20922;-64
2023/03/15 05:56:24;;;;;;;8.33;3.60;;;3.80;99.90;;;;;;5055331;28;20278;-64
2023/03/15 05:58:49;;;;;;;8.67;4.20;;;3.80;99.90;;;;;;5054361;28;21041;-64
2023/03/15 06:01:15;;;;;;;8.63;3.93;;;3.70;99.90;;;;;;5049808;28;20605;-64
2023/03/15 06:03:40;;;;;;;6.07;3.90;;;3.60;99.90;;;;;;5050428;28;20541;-64
2023/03/15 06:06:06;;;;;;;12.47;3.50;;;3.70;99.90;;;;;;5053944;28;20186;-63
2023/03/15 06:08:31;;;;;;;4.83;3.33;;;3.70;99.90;;;;;;5054064;28;20272;-64
2023/03/15 06:10:57;;;;;;;4.30;3.60;;;3.70;99.90;;;;;;5051882;28;20350;-65
2023/03/15 06:13:23;;;;;;;6.07;3.47;;;3.70;99.90;;;;;;5052890;28;20194;-64
2023/03/15 06:15:48;;;;;;;6.33;3.40;;;3.70;99.90;;;;;;5052245;28;20203;-64
2023/03/15 06:18:16;;;;;;;6.77;3.60;;;3.70;99.90;;;;;;5050922;28;20208;-64
2023/03/15 06:20:42;;;;;;;8.37;3.60;;;3.80;99.90;;;;;;5051658;28;20664;-64
2023/03/15 06:23:08;;;;;;;7.83;3.90;;;3.90;99.90;;;;;;5051129;28;20430;-64
2023/03/15 06:25:33;;;;;;;6.27;3.93;;;3.90;99.90;;;;;;5052473;28;20490;-64
2023/03/15 06:27:59;;;;;;;6.10;3.37;;;3.90;99.90;;;;;;5049796;28;20214;-64
2023/03/15 06:30:25;;;;;;;7.80;4.53;;;3.90;99.90;;;;;;5053998;28;20183;-65
2023/03/15 06:32:50;;;;;;;12.57;9.47;;;3.90;99.90;;;;;;5054497;28;20441;-64
2023/03/15 06:35:17;;;;;;;7.73;5.37;;;3.90;99.90;;;;;;5053546;28;20266;-64
2023/03/15 06:37:42;;;;;;;6.73;4.70;;;3.90;99.90;;;;;;5051605;28;21139;-64
2023/03/15 06:40:10;;;;;;;7.00;5.00;;;3.90;99.90;;;;;;5050576;28;20187;-64
2023/03/15 06:42:37;;;;;;;10.23;5.07;;;4.00;99.90;;;;;;5052346;28;20281;-64
2023/03/15 06:45:04;;;;;;;6.40;5.40;;;4.10;99.90;;;;;;5048327;28;20808;-64
2023/03/15 06:47:29;;;;;;;5.90;4.10;;;4.20;99.90;;;;;;5052065;28;20481;-64
2023/03/15 06:49:55;;;;;;;4.80;3.60;;;4.20;99.90;;;;;;5049919;28;20430;-65
2023/03/15 06:52:20;;;;;;;7.47;4.90;;;4.30;99.90;;;;;;5050433;28;20692;-64
2023/03/15 06:54:46;;;;;;;9.90;4.50;;;4.30;99.90;;;;;;5053292;28;20708;-64
2023/03/15 06:57:12;;;;;;;9.03;4.13;;;4.40;99.90;;;;;;5049865;28;20221;-64
2023/03/15 06:59:37;;;;;;;5.47;3.80;;;4.40;99.90;;;;;;5052153;28;20218;-64
2023/03/15 07:02:03;;;;;;;6.73;4.50;;;4.30;99.90;;;;;;5048534;28;20879;-65
2023/03/15 07:04:28;;;;;;;6.80;3.97;;;4.30;99.90;;;;;;5050161;28;20186;-65
2023/03/15 07:06:54;;;;;;;5.43;3.53;;;4.40;99.90;;;;;;5048235;28;20239;-65
2023/03/15 07:09:20;;;;;;;9.50;3.70;;;4.50;99.90;;;;;;5049409;28;20189;-67
2023/03/15 07:11:46;;;;;;;11.47;3.87;;;4.60;99.90;;;;;;5046469;28;20218;-64
2023/03/15 07:14:11;;;;;;;5.30;3.87;;;4.70;99.90;;;;;;5051107;28;20619;-64
2023/03/15 07:16:37;;;;;;;7.43;4.20;;;4.70;99.90;;;;;;5048689;28;20215;-64
2023/03/15 07:19:03;;;;;;;6.17;4.40;;;4.70;99.90;;;;;;5051233;28;20214;-64
2023/03/15 07:21:28;;;;;;;9.80;4.27;;;4.70;99.90;;;;;;5048224;28;20183;-64
2023/03/15 07:23:54;;;;;;;5.90;4.00;;;4.80;99.90;;;;;;5055356;28;20218;-64
2023/03/15 07:26:20;;;;;;;7.00;3.90;;;4.90;99.90;;;;;;5052224;28;20543;-64
2023/03/15 07:28:45;;;;;;;9.30;3.83;;;5.00;99.90;;;;;;5053723;28;20286;-65
2023/03/15 07:31:11;;;;;;;4.70;3.17;;;5.00;99.90;;;;;;5048858;28;21157;-64
2023/03/15 07:33:37;;;;;;;5.47;3.30;;;5.00;99.90;;;;;;5052373;28;20183;-64
2023/03/15 07:36:05;;;;;;;7.87;3.90;;;5.10;99.90;;;;;;5053760;28;20633;-64
2023/03/15 07:38:33;;;;;;;10.40;3.80;;;5.20;99.90;;;;;;5049009;28;20910;-64
2023/03/15 07:41:01;;;;;;;7.93;4.10;;;5.30;99.90;;;;;;5053746;28;20640;-64
2023/03/15 07:43:28;;;;;;;7.40;3.20;;;5.40;99.90;;;;;;5053028;28;20422;-65
2023/03/15 07:45:53;;;;;;;8.97;4.33;;;5.50;99.90;;;;;;5054370;28;20871;-64
2023/03/15 07:48:19;;;;;;;4.47;3.57;;;5.50;99.90;;;;;;5059950;28;20448;-65
2023/03/15 07:50:45;;;;;;;5.47;3.67;;;5.40;99.90;;;;;;5054238;28;20197;-65
2023/03/15 07:53:10;;;;;;;6.10;3.07;;;5.50;99.90;;;;;;5055491;28;20226;-64
2023/03/15 07:55:36;;;;;;;11.10;4.40;;;5.60;99.90;;;;;;5052106;28;20213;-64
2023/03/15 07:58:02;;;;;;;8.10;3.60;;;5.60;99.90;;;;;;5053759;28;20298;-64
2023/03/15 08:00:28;;;;;;;6.67;4.00;;;5.60;99.90;;;;;;5052815;28;20524;-64
2023/03/15 08:02:54;;;;;;;4.00;3.50;;;5.70;99.90;;;;;;5055967;28;20425;-65
2023/03/15 08:05:20;;;;;;;5.33;3.63;;;5.80;99.90;;;;;;5058846;28;20728;-65
2023/03/15 08:07:47;;;;;;;7.70;4.40;;;5.80;99.90;;;;;;5051481;28;20415;-64
2023/03/15 08:10:13;;;;;;;8.63;4.20;;;5.80;99.90;;;;;;5054787;28;20195;-64
2023/03/15 08:12:41;;;;;;;7.77;3.90;;;5.90;99.90;;;;;;5054545;28;20798;-64
2023/03/15 08:15:09;;;;;;;6.10;4.13;;;5.90;99.90;;;;;;5050687;28;20431;-65
2023/03/15 08:17:35;;;;;;;4.20;3.30;;;6.00;99.90;;;;;;5055274;28;20477;-64
2023/03/15 08:20:01;;;;;;;8.60;4.07;;;6.00;99.90;;;;;;5051086;28;20987;-64
2023/03/15 08:22:29;;;;;;;9.70;4.97;;;6.10;99.90;;;;;;5057861;28;20179;-64
2023/03/15 08:24:56;;;;;;;4.73;3.67;;;6.20;99.90;;;;;;5060662;28;20524;-65
2023/03/15 08:27:24;;;;;;;5.20;3.40;;;6.30;99.90;;;;;;5052789;28;20469;-65
2023/03/15 08:29:50;;;;;;;6.90;3.70;;;6.30;99.90;;;;;;5054068;28;20445;-65
2023/03/15 08:32:17;;;;;;;5.97;3.60;;;6.30;99.90;;;;;;5052463;28;20488;-64
2023/03/15 08:34:43;;;;;;;5.50;3.10;;;6.30;99.90;;;;;;5055805;28;20498;-64
2023/03/15 08:37:12;;;;;;;5.47;3.47;;;6.40;99.90;;;;;;5052122;28;20452;-65
2023/03/15 08:39:38;;;;;;;6.73;4.10;;;6.50;99.90;;;;;;5054093;28;20207;-65
2023/03/15 08:42:04;;;;;;;6.60;3.60;;;6.50;99.90;;;;;;5057874;28;21066;-65
2023/03/15 08:44:30;;;;;;;4.50;3.03;;;6.50;99.90;;;;;;5051445;28;20529;-65
2023/03/15 08:46:55;;;;;;;5.53;3.40;;;6.60;99.90;;;;;;5055622;28;20599;-65
2023/03/15 08:49:21;;;;;;;6.40;3.63;;;6.70;99.90;;;;;;5052442;28;20779;-65
2023/03/15 08:51:47;;;;;;;12.33;3.70;;;6.80;99.90;;;;;;5052849;28;20666;-65
2023/03/15 08:54:13;;;;;;;7.20;3.50;;;6.90;99.90;;;;;;5055421;28;20552;-64
2023/03/15 08:56:41;;;;;;;7.33;3.07;;;6.70;99.90;;;;;;5054600;28;20195;-64
2023/03/15 08:59:08;;;;;;;6.60;3.10;;;6.90;99.90;;;;;;5051549;28;20607;-64
2023/03/15 09:01:34;;;;;;;4.83;3.03;;;6.90;99.90;;;;;;5053641;28;20436;-64
2023/03/15 09:04:00;;;;;;;3.67;2.97;;;7.00;99.90;;;;;;5054812;28;20433;-64
2023/03/15 09:06:27;;;;;;;7.63;2.60;;;7.10;99.90;;;;;;5055251;28;20200;-65
2023/03/15 09:08:53;;;;;;;9.40;2.93;;;7.20;99.90;;;;;;5053729;28;20612;-64
2023/03/15 09:11:19;;;;;;;5.60;2.80;;;7.30;99.90;;;;;;5054174;28;20520;-65
2023/03/15 09:13:45;;;;;;;5.80;2.93;;;7.30;99.90;;;;;;5054996;28;20417;-64
2023/03/15 09:16:10;;;;;;;7.17;3.33;;;7.30;99.90;;;;;;5055985;28;20464;-65
2023/03/15 09:18:36;;;;;;;16.93;3.33;;;7.30;99.90;;;;;;5052407;28;20336;-64
2023/03/15 09:21:03;;;;;;;5.10;2.80;;;7.30;99.90;;;;;;5050101;28;20229;-64
2023/03/15 09:23:29;;;;;;;3.73;2.70;;;7.20;99.90;;;;;;5053044;28;20202;-64
2023/03/15 09:25:54;;;;;;;5.17;2.87;;;7.30;99.90;;;;;;5054701;28;20446;-64
2023/03/15 09:28:20;;;;;;;4.07;2.77;;;7.30;99.90;;;;;;5053274;28;20244;-63
2023/03/15 09:30:46;;;;;;;5.37;3.10;;;7.40;99.90;;;;;;5057606;28;20360;-64
2023/03/15 09:33:13;;;;;;;6.07;4.50;;;7.30;99.90;;;;;;5053378;28;20713;-63
2023/03/15 09:35:39;;;;;;;5.93;2.80;;;7.50;99.90;;;;;;5054435;28;20201;-64
2023/03/15 09:38:05;;;;;;;2.73;2.37;;;7.70;99.90;;;;;;5054662;28;20522;-65
2023/03/15 09:40:33;;;;;;;3.57;2.67;;;7.70;99.90;;;;;;5055412;28;20464;-65
2023/03/15 09:43:05;;;;;;;5.63;2.53;;;7.80;99.90;;;;;;5053931;28;20192;-65
2023/03/15 09:45:47;;;;;;;3.17;2.50;;;7.90;99.90;;;;;;5050284;28;20445;-65
2023/03/15 09:48:26;;;;;;;3.23;2.60;;;8.10;99.90;;;;;;5054348;28;20540;-64
2023/03/15 09:51:12;;;;;;;3.23;2.93;;;8.20;99.90;;;;;;5048650;28;20463;-65
2023/03/15 09:54:28;;;;;;;4.10;2.80;;;8.30;99.90;;;;;;5049932;28;20442;-65
2023/03/15 09:56:58;;;;;;;3.77;3.37;;;8.20;99.90;;;;;;4973523;28;20835;-64
2023/03/15 09:59:32;;;;;;;5.07;2.43;;;8.10;99.90;;;;;;4973729;28;20481;-65
2023/03/15 10:02:00;;;;;;;3.17;2.77;;;8.10;99.90;;;;;;5026634;28;20516;-65
2023/03/15 10:04:25;;;;;;;3.40;2.53;;;8.10;99.90;;;;;;5055449;28;20841;-65
2023/03/15 10:07:02;;;;;;;6.80;2.80;;;8.00;99.90;;;;;;5052892;28;20457;-63
2023/03/15 10:09:33;;;;;;;3.33;3.03;;;8.00;99.90;;;;;;5047385;28;20266;-64
2023/03/15 10:12:09;;;;;;;3.17;2.60;;;8.00;99.90;;;;;;5051199;28;20441;-64
2023/03/15 10:14:56;;;;;;;6.30;2.33;;;8.00;99.90;;;;;;5053143;28;20503;-64
2023/03/15 10:17:58;;;;;;;5.67;3.00;;;8.00;99.90;;;;;;5048988;28;20552;-64
2023/03/15 10:20:39;;;;;;;10.83;3.10;;;8.10;99.90;;;;;;5050443;28;20516;-64
2023/03/15 10:23:22;;;;;;;6.20;3.10;;;8.20;99.90;;;;;;5049556;28;20426;-64
2023/03/15 10:25:50;;;;;;;4.83;2.57;;;8.40;99.90;;;;;;5048723;28;20520;-64
2023/03/15 10:28:19;;;;;;;4.53;2.90;;;8.40;99.90;;;;;;5054456;28;20476;-64
2023/03/15 10:30:47;;;;;;;5.00;3.10;;;8.60;99.90;;;;;;5050757;28;20437;-64
2023/03/15 10:33:28;;;;;;;4.03;2.93;;;8.70;99.90;;;;;;5053569;28;20437;-64
2023/03/15 10:35:54;;;;;;;7.83;2.53;;;8.50;99.90;;;;;;5050326;28;20488;-64
2023/03/15 10:38:22;;;;;;;8.60;2.63;;;8.60;99.90;;;;;;5051402;28;20482;-64
2023/03/15 10:40:51;;;;;;;6.97;3.10;;;8.60;99.90;;;;;;5054339;28;20445;-64
2023/03/15 10:43:18;;;;;;;4.10;2.30;;;8.60;99.90;;;;;;5054103;28;20438;-64
2023/03/15 10:45:57;;;;;;;5.80;2.60;;;8.50;99.90;;;;;;5051141;28;21192;-64
2023/03/15 10:48:23;;;;;;;3.87;3.10;;;8.30;99.90;;;;;;5054597;28;20420;-64
2023/03/15 10:50:49;;;;;;;24.13;4.27;;;8.20;99.90;;;;;;5052418;28;20439;-64
2023/03/15 10:53:20;;;;;;;7.77;2.50;;;8.20;99.90;;;;;;5049155;28;20991;-67
2023/03/15 10:55:47;;;;;;;3.60;2.73;;;8.10;99.90;;;;;;5051806;28;20485;-67
2023/03/15 10:58:41;;;;;;;8.50;7.40;;;8.30;99.90;;;;;;5051509;28;20457;-65
2023/03/15 11:01:12;;;;;;;4.70;3.00;;;8.40;99.90;;;;;;5043827;28;20469;-65
2023/03/15 11:03:42;;;;;;;4.60;2.83;;;8.40;99.90;;;;;;5052137;28;20802;-65
2023/03/15 11:06:20;;;;;;;4.93;2.77;;;8.40;99.90;;;;;;5046970;28;20432;-65
2023/03/15 11:08:46;;;;;;;3.50;3.00;;;8.40;99.90;;;;;;5048287;28;20430;-65
2023/03/15 11:11:12;;;;;;;8.50;3.33;;;8.20;99.90;;;;;;5053365;28;20946;-65
2023/03/15 11:13:39;;;;;;;3.83;2.87;;;8.00;99.90;;;;;;5050227;28;20190;-64
2023/03/15 11:16:17;;;;;;;3.10;2.80;;;8.10;99.90;;;;;;5052257;28;20192;-65
2023/03/15 11:19:04;;;;;;;3.90;2.80;;;7.90;99.90;;;;;;5052261;28;20469;-65
2023/03/15 11:21:35;;;;;;;3.87;2.50;;;7.70;99.90;;;;;;5052823;28;20486;-64
2023/03/15 11:24:04;;;;;;;3.90;2.43;;;7.50;99.90;;;;;;5053188;28;20472;-65
2023/03/15 11:26:36;;;;;;;2.67;2.00;;;7.30;99.90;;;;;;5053856;28;20456;-64
2023/03/15 11:29:18;;;;;;;4.00;2.50;;;7.20;99.90;;;;;;5053886;28;20521;-65
2023/03/15 11:31:44;;;;;;;5.43;2.53;;;7.20;99.90;;;;;;5054499;28;20467;-65
2023/03/15 11:34:47;;;;;;;5.00;2.83;;;7.30;99.90;;;;;;5048620;28;20449;-65
2023/03/15 11:37:21;;;;;;;4.10;2.53;;;7.60;99.90;;;;;;5048798;28;20532;-64
2023/03/15 11:40:02;;;;;;;2.93;2.20;;;7.70;99.90;;;;;;5051374;28;20864;-65
2023/03/15 11:42:34;;;;;;;3.80;2.70;;;7.80;99.90;;;;;;5050244;28;21222;-65
2023/03/15 11:45:16;;;;;;;3.70;2.50;;;7.70;99.90;;;;;;5047256;28;20421;-65
2023/03/15 11:47:47;;;;;;;3.97;2.40;;;7.70;99.90;;;;;;5053753;28;20469;-64
2023/03/15 11:50:14;;;;;;;5.27;2.30;;;7.80;99.90;;;;;;5052029;28;20532;-64
2023/03/15 11:52:41;;;;;;;3.47;2.30;;;7.80;99.90;;;;;;5050887;28;20803;-64
2023/03/15 11:55:17;;;;;;;2.80;2.07;;;7.70;99.90;;;;;;5052722;28;20468;-64
2023/03/15 11:57:49;;;;;;;2.97;2.27;;;7.70;99.90;;;;;;5049530;28;20467;-64
2023/03/15 12:00:33;;;;;;;3.80;2.10;;;7.70;99.90;;;;;;5055153;28;20845;-65
2023/03/15 12:03:19;;;;;;;2.10;1.90;;;7.60;99.90;;;;;;5051243;28;20966;-65
2023/03/15 12:05:45;;;;;;;2.67;2.10;;;7.80;99.90;;;;;;5048886;28;20453;-65
2023/03/15 12:08:19;;;;;;;3.30;2.17;;;7.90;99.90;;;;;;5051500;28;21571;-64
2023/03/15 12:10:48;;;;;;;3.67;2.10;;;8.10;99.90;;;;;;5052057;28;20274;-65
2023/03/15 12:13:23;;;;;;;2.87;1.93;;;8.50;99.90;;;;;;5054533;28;21085;-65
2023/03/15 12:15:50;;;;;;;6.40;2.60;;;8.50;99.90;;;;;;5050477;28;20483;-64
2023/03/15 12:18:20;;;;;;;3.33;2.00;;;8.80;99.90;;;;;;5052258;28;20972;-65
2023/03/15 12:21:03;;;;;;;3.97;2.10;;;9.10;99.90;;;;;;5052006;28;21400;-65
2023/03/15 12:23:43;;;;;;;2.97;2.30;;;9.70;99.90;;;;;;5052409;28;20516;-64
2023/03/15 12:26:22;;;;;;;2.97;2.50;;;9.80;99.90;;;;;;5052851;28;21133;-65
2023/03/15 12:29:12;;;;;;;4.90;2.40;;;9.70;99.90;;;;;;5051876;28;20490;-64
2023/03/15 12:31:45;;;;;;;4.03;2.70;;;9.90;99.90;;;;;;5053696;28;20437;-65
2023/03/15 12:34:27;;;;;;;5.47;2.70;;;9.60;99.90;;;;;;5058545;28;20418;-65
2023/03/15 12:36:58;;;;;;;6.40;2.90;;;9.90;99.90;;;;;;5054855;28;20487;-65
2023/03/15 12:39:42;;;;;;;3.87;2.80;;;10.00;99.90;;;;;;5054611;28;20449;-65
2023/03/15 12:42:37;;;;;;;4.03;3.23;;;10.10;99.90;;;;;;5050680;28;20792;-65
2023/03/15 12:45:15;;;;;;;4.97;3.37;;;10.50;99.90;;;;;;5051039;28;20421;-65
2023/03/15 12:47:50;;;;;;;8.53;3.70;;;10.70;99.90;;;;;;5050737;28;20477;-65
2023/03/15 12:50:37;;;;;;;8.67;3.50;;;10.30;99.90;;;;;;5054948;28;20468;-65
2023/03/15 12:53:13;;;;;;;4.27;3.30;;;10.20;99.90;;;;;;5054437;28;20512;-65
2023/03/15 12:55:39;;;;;;;5.60;3.10;;;10.00;99.90;;;;;;5047972;28;20432;-65
2023/03/15 12:58:11;;;;;;;5.50;3.17;;;11.60;99.90;;;;;;5055431;28;20508;-65
2023/03/15 13:00:40;;;;;;;9.17;3.63;;;13.40;99.90;;;;;;5053382;28;21148;-65
2023/03/15 13:03:24;;;;;;;4.80;3.10;;;14.80;99.90;;;;;;5051052;28;20420;-65